createdAt,value
2023-02-18T00:02:27.614Z,12.54
2023-02-18T00:07:30.272Z,12.44
2023-02-18T00:12:34.543Z,12.53
2023-02-18T00:17:37.305Z,12.43
2023-02-18T00:22:39.986Z,11.99
2023-02-18T00:27:44.035Z,12.28
2023-02-18T00:32:47.028Z,12.21
2023-02-18T00:37:52.206Z,12.29
2023-02-18T00:42:56.631Z,12.12
2023-02-18T00:47:59.172Z,12.06
2023-02-18T00:53:01.920Z,12.07
2023-02-18T00:58:05.816Z,12.09
2023-02-18T01:03:08.763Z,12.23
2023-02-18T01:08:12.198Z,12.00
2023-02-18T01:13:17.381Z,12.27
2023-02-18T01:18:21.384Z,12.26
2023-02-18T01:23:24.320Z,12.24
2023-02-18T01:28:28.271Z,12.31
2023-02-18T01:33:30.818Z,12.22
2023-02-18T01:38:34.381Z,12.06
2023-02-18T01:43:38.721Z,12.06
2023-02-18T01:48:44.982Z,12.00
2023-02-18T01:53:53.900Z,12.19
2023-02-18T01:59:00.430Z,12.03
2023-02-18T02:04:03.373Z,11.98
2023-02-18T02:09:09.543Z,11.96
2023-02-18T02:14:26.626Z,11.95
2023-02-18T02:19:55.500Z,12.03
2023-02-18T02:25:22.089Z,12.02
2023-02-18T02:30:55.580Z,12.03
2023-02-18T02:36:04.721Z,11.88
2023-02-18T02:41:19.147Z,12.04
2023-02-18T02:46:27.962Z,11.73
2023-02-18T02:51:39.256Z,11.74
2023-02-18T02:56:41.937Z,11.56
2023-02-18T03:02:01.959Z,11.73
2023-02-18T03:07:16.431Z,11.63
2023-02-18T03:12:27.745Z,11.58
2023-02-18T03:17:37.306Z,11.37
2023-02-18T03:22:46.255Z,11.47
2023-02-18T03:27:53.875Z,11.52
2023-02-18T03:33:01.166Z,11.44
2023-02-18T03:38:13.428Z,11.45
2023-02-18T03:43:16.297Z,11.51
2023-02-18T03:48:19.102Z,11.41
2023-02-18T03:53:23.028Z,11.41
2023-02-18T03:58:26.493Z,11.39
2023-02-18T04:03:29.015Z,11.38
2023-02-18T04:08:32.953Z,11.50
2023-02-18T04:13:35.897Z,11.48
2023-02-18T04:18:58.431Z,11.56
2023-02-18T04:24:22.395Z,11.54
2023-02-18T04:29:45.161Z,11.40
2023-02-18T04:35:08.039Z,11.21
2023-02-18T04:40:32.016Z,11.26
2023-02-18T04:45:54.591Z,11.13
2023-02-18T04:51:17.409Z,11.28
2023-02-18T04:56:41.270Z,11.16
2023-02-18T05:02:04.118Z,10.90
2023-02-18T05:07:26.709Z,11.22
2023-02-18T05:12:31.012Z,10.87
2023-02-18T05:17:33.677Z,11.20
2023-02-18T05:22:36.410Z,11.13
2023-02-18T05:27:40.278Z,11.24
2023-02-18T05:32:42.942Z,11.13
2023-02-18T05:37:45.809Z,11.27
2023-02-18T05:42:49.880Z,11.28
2023-02-18T05:47:52.436Z,11.16
2023-02-18T05:52:55.011Z,11.22
2023-02-18T05:57:58.877Z,11.25
2023-02-18T06:03:01.449Z,11.12
2023-02-18T06:08:04.142Z,11.09
2023-02-18T06:13:08.209Z,11.06
2023-02-18T06:18:10.766Z,11.16
2023-02-18T06:23:13.396Z,11.17
2023-02-18T06:28:17.383Z,11.18
2023-02-18T06:33:19.918Z,10.98
2023-02-18T06:38:23.127Z,11.19
2023-02-18T06:43:27.079Z,10.96
2023-02-18T06:48:29.688Z,11.09
2023-02-18T06:53:32.283Z,11.06
2023-02-18T06:58:36.165Z,10.96
2023-02-18T07:03:38.937Z,10.47
2023-02-18T07:08:41.622Z,10.96
2023-02-18T07:13:47.537Z,11.01
2023-02-18T07:18:50.101Z,10.97
2023-02-18T07:23:52.666Z,11.17
2023-02-18T07:28:56.530Z,11.13
2023-02-18T07:33:59.083Z,11.23
2023-02-18T07:39:01.614Z,11.15
2023-02-18T07:44:06.211Z,11.23
2023-02-18T07:49:08.818Z,11.40
2023-02-18T07:54:11.346Z,11.30
2023-02-18T07:59:15.472Z,11.19
2023-02-18T08:04:18.460Z,11.14
2023-02-18T08:09:21.090Z,11.32
2023-02-18T08:14:25.108Z,11.13
2023-02-18T08:19:27.920Z,11.34
2023-02-18T08:24:30.844Z,11.06
2023-02-18T08:29:34.734Z,11.29
2023-02-18T08:34:37.397Z,10.98
2023-02-18T08:39:40.347Z,10.98
2023-02-18T08:44:44.369Z,11.02
2023-02-18T08:49:47.348Z,10.92
2023-02-18T08:54:49.981Z,11.13
2023-02-18T08:59:53.835Z,11.12
2023-02-18T09:04:56.363Z,10.94
2023-02-18T09:09:58.900Z,11.09
2023-02-18T09:15:02.925Z,11.35
2023-02-18T09:20:06.648Z,11.48
2023-02-18T09:25:09.380Z,11.23
2023-02-18T09:30:14.200Z,11.28
2023-02-18T09:35:16.970Z,11.24
2023-02-18T09:40:27.006Z,11.25
2023-02-18T09:45:31.262Z,11.22
2023-02-18T09:50:35.149Z,11.42
2023-02-18T09:55:40.987Z,11.41
2023-02-18T10:00:48.367Z,11.35
2023-02-18T10:05:59.180Z,11.36
2023-02-18T10:11:01.900Z,11.27
2023-02-18T10:16:07.302Z,11.46
2023-02-18T10:21:12.542Z,11.28
2023-02-18T10:26:19.453Z,11.28
2023-02-18T10:31:29.499Z,11.31
2023-02-18T10:36:44.989Z,11.09
2023-02-18T10:41:58.221Z,11.09
2023-02-18T10:47:14.068Z,11.02
2023-02-18T10:52:18.884Z,10.80
2023-02-18T10:57:24.373Z,11.26
2023-02-18T11:02:32.520Z,11.14
2023-02-18T11:07:37.161Z,11.20
2023-02-18T11:12:46.689Z,10.80
2023-02-18T11:17:51.877Z,10.75
2023-02-18T11:22:59.426Z,10.65
2023-02-18T11:28:04.283Z,10.96
2023-02-18T11:33:16.204Z,10.92
2023-02-18T11:38:24.793Z,10.71
2023-02-18T11:43:31.544Z,11.05
2023-02-18T11:48:35.630Z,10.99
2023-02-18T11:53:39.184Z,10.86
2023-02-18T11:58:45.004Z,10.89
2023-02-18T12:03:55.714Z,11.00
2023-02-18T12:09:05.295Z,10.98
2023-02-18T12:14:19.824Z,10.92
2023-02-18T12:19:52.768Z,11.03
2023-02-18T12:25:11.388Z,10.91
2023-02-18T12:30:29.626Z,11.05
2023-02-18T12:35:48.256Z,11.21
2023-02-18T12:41:07.238Z,11.10
2023-02-18T12:46:30.061Z,11.03
2023-02-18T12:51:44.301Z,11.23
2023-02-18T12:57:23.223Z,11.14
2023-02-18T13:02:44.012Z,11.15
2023-02-18T13:08:12.489Z,11.14
2023-02-18T13:13:20.258Z,11.18
2023-02-18T13:18:26.533Z,11.20
2023-02-18T13:23:34.311Z,11.14
2023-02-18T13:28:41.671Z,11.28
2023-02-18T13:33:51.935Z,11.26
2023-02-18T13:39:01.892Z,11.26
2023-02-18T13:44:09.312Z,11.21
2023-02-18T13:49:13.950Z,11.28
2023-02-18T13:54:25.810Z,11.18
2023-02-18T13:59:35.267Z,11.06
2023-02-18T14:04:54.514Z,11.28
2023-02-18T14:09:59.619Z,11.12
2023-02-18T14:15:02.439Z,11.36
2023-02-18T14:20:32.780Z,11.38
2023-02-18T14:25:41.474Z,11.21
2023-02-18T14:30:44.443Z,11.46
2023-02-18T14:35:54.620Z,11.61
2023-02-18T14:41:42.368Z,11.42
2023-02-18T14:47:01.244Z,11.59
2023-02-18T14:52:07.001Z,11.61
2023-02-18T14:57:16.925Z,11.47
2023-02-18T15:02:22.228Z,11.33
2023-02-18T15:07:24.819Z,11.35
2023-02-18T15:12:29.794Z,11.49
2023-02-18T15:17:32.878Z,11.61
2023-02-18T15:22:36.734Z,11.67
2023-02-18T15:27:45.878Z,11.31
2023-02-18T15:32:53.404Z,11.67
2023-02-18T15:37:58.276Z,11.71
2023-02-18T15:43:04.938Z,11.69
2023-02-18T15:48:07.684Z,11.75
2023-02-18T15:53:16.645Z,11.77
2023-02-18T15:58:24.616Z,11.79
2023-02-18T16:03:29.058Z,11.73
2023-02-18T16:08:31.618Z,11.77
2023-02-18T16:13:38.718Z,11.47
2023-02-18T16:18:42.539Z,11.55
2023-02-18T16:23:54.283Z,11.58
2023-02-18T16:29:05.718Z,11.52
2023-02-18T16:34:08.373Z,11.38
2023-02-18T16:39:11.059Z,11.36
2023-02-18T16:44:15.540Z,11.37
2023-02-18T16:49:20.196Z,11.35
2023-02-18T16:54:22.911Z,11.49
2023-02-18T16:59:27.221Z,11.56
2023-02-18T17:04:31.680Z,11.57
2023-02-18T17:09:34.795Z,11.45
2023-02-18T17:14:39.411Z,11.42
2023-02-18T17:19:43.614Z,11.49
2023-02-18T17:24:48.095Z,11.41
2023-02-18T17:29:52.181Z,11.49
2023-02-18T17:34:54.758Z,11.48
2023-02-18T17:39:57.359Z,11.50
2023-02-18T17:45:02.340Z,11.33
2023-02-18T17:50:05.405Z,11.36
2023-02-18T17:55:20.383Z,11.30
2023-02-18T18:00:26.558Z,11.50
2023-02-18T18:05:33.162Z,11.48
2023-02-18T18:10:40.378Z,11.58
2023-02-18T18:15:46.279Z,11.55
2023-02-18T18:20:53.425Z,11.56
2023-02-18T18:25:57.977Z,11.71
2023-02-18T18:31:03.185Z,11.73
2023-02-18T18:36:07.241Z,11.55
2023-02-18T18:41:14.689Z,11.49
2023-02-18T18:46:19.208Z,11.59
2023-02-18T18:51:28.666Z,11.35
2023-02-18T18:56:31.235Z,11.55
2023-02-18T19:01:35.836Z,11.30
2023-02-18T19:06:38.573Z,11.46
2023-02-18T19:11:41.350Z,11.43
2023-02-18T19:16:45.394Z,11.04
2023-02-18T19:21:48.986Z,11.40
2023-02-18T19:26:51.890Z,11.38
2023-02-18T19:31:55.841Z,11.45
2023-02-18T19:36:58.517Z,11.52
2023-02-18T19:42:01.142Z,11.65
2023-02-18T19:47:05.297Z,11.58
2023-02-18T19:52:07.830Z,11.58
2023-02-18T19:57:10.447Z,11.33
2023-02-18T20:02:16.227Z,11.57
2023-02-18T20:07:21.167Z,11.54
2023-02-18T20:12:24.768Z,11.30
2023-02-18T20:17:28.751Z,11.23
2023-02-18T20:22:31.304Z,11.33
2023-02-18T20:27:37.549Z,11.34
2023-02-18T20:32:44.133Z,11.41
2023-02-18T20:37:46.711Z,11.39
2023-02-18T20:42:49.561Z,11.31
2023-02-18T20:47:53.470Z,11.57
2023-02-18T20:52:56.260Z,11.51
2023-02-18T20:57:58.983Z,11.50
2023-02-18T21:03:02.934Z,11.29
2023-02-18T21:08:05.736Z,11.33
2023-02-18T21:13:08.494Z,11.09
2023-02-18T21:18:12.435Z,11.18
2023-02-18T21:23:14.974Z,11.15
2023-02-18T21:28:17.892Z,11.27
2023-02-18T21:33:21.848Z,11.22
2023-02-18T21:38:24.655Z,11.21
2023-02-18T21:43:27.272Z,11.13
2023-02-18T21:48:48.966Z,11.04
2023-02-18T21:53:52.102Z,10.99
2023-02-18T21:58:55.455Z,11.00
2023-02-18T22:03:59.389Z,11.16
2023-02-18T22:09:02.511Z,11.02
2023-02-18T22:14:05.427Z,11.16
2023-02-18T22:19:09.609Z,11.07
2023-02-18T22:24:13.558Z,11.06
2023-02-18T22:29:18.867Z,11.15
2023-02-18T22:34:23.908Z,11.16
2023-02-18T22:39:26.594Z,11.11
2023-02-18T22:44:29.377Z,11.41
2023-02-18T22:49:33.241Z,11.19
2023-02-18T22:54:36.402Z,11.32
2023-02-18T22:59:41.572Z,11.23
2023-02-18T23:04:48.200Z,11.30
2023-02-18T23:09:50.904Z,11.23
2023-02-18T23:14:57.156Z,11.38
2023-02-18T23:20:06.503Z,11.42
2023-02-18T23:25:09.479Z,11.27
2023-02-18T23:30:12.874Z,11.51
2023-02-18T23:35:17.098Z,11.49
2023-02-18T23:40:19.951Z,11.40
2023-02-18T23:45:23.176Z,11.58
2023-02-18T23:50:27.094Z,11.71
2023-02-18T23:55:30.022Z,11.65
